Time;durP1;ratioP1;P1;durP2;ratioP2;P2;SDS_P1;SDS_P2;PMS_P1;PMS_P2;Temp;Humidity;BMP_temperature;BMP_pressure;BME280_temperature;BME280_humidity;BME280_pressure;Samples;Min_cycle;Max_cycle;Signal;HPM_P1;HPM_P2
2022/04/27 00:00:33;;;;;;;;;;;11.80;76.50;;;10.75;nan;96159.34;4233382;33;19909;-87
2022/04/27 00:03:03;;;;;;;;;;;11.80;76.50;;;10.74;nan;96168.66;4209989;33;20221;-86
2022/04/27 00:05:31;;;;;;;;;;;11.70;76.60;;;10.73;nan;96161.53;4233182;33;19903;-86
2022/04/27 00:08:00;;;;;;;;;;;11.80;76.70;;;10.73;nan;96165.09;4209364;33;19937;-87
2022/04/27 00:10:30;;;;;;;;;;;11.80;76.60;;;10.74;nan;96169.47;4233413;33;19994;-87
2022/04/27 00:12:58;;;;;;;;;;;11.70;76.60;;;10.73;nan;96169.75;4209984;33;19985;-87
2022/04/27 00:15:28;;;;;;;;;;;11.70;76.40;;;10.73;nan;96178.78;4234214;33;20225;-86
2022/04/27 00:17:56;;;;;;;;;;;11.70;76.40;;;10.73;nan;96172.47;4208692;33;20099;-86
2022/04/27 00:20:25;;;;;;;;;;;11.70;76.40;;;10.72;nan;96170.84;4186668;33;19992;-87
2022/04/27 00:22:53;;;;;;;;;;;11.70;76.30;;;10.72;nan;96166.19;4233081;33;20456;-86
2022/04/27 00:25:23;;;;;;;;;;;11.70;76.20;;;10.72;nan;96176.31;4209893;33;20015;-86
2022/04/27 00:27:53;;;;;;;;;;;11.70;77.00;;;10.70;nan;96160.16;4237811;33;19909;-87
2022/04/27 00:30:22;;;;;;;;;;;11.70;76.10;;;10.71;nan;96167.28;4237594;33;19909;-87
2022/04/27 00:32:50;;;;;;;;;;;11.70;76.00;;;10.70;nan;96162.91;4262659;33;20086;-87
2022/04/27 00:35:19;;;;;;;;;;;11.70;76.00;;;10.68;nan;96167.81;4238119;33;20456;-87
2022/04/27 00:37:48;;;;;;;;;;;11.70;75.90;;;10.70;nan;96159.34;4237526;33;20046;-87
2022/04/27 00:40:16;;;;;;;;;;;11.70;75.90;;;10.70;nan;96171.13;4237938;33;20091;-87
2022/04/27 00:42:45;;;;;;;;;;;11.70;75.80;;;10.67;nan;96157.97;4261759;33;20476;-87
2022/04/27 00:45:15;;;;;;;;;;;11.70;75.80;;;10.68;nan;96164.28;4237818;33;19909;-87
2022/04/27 00:47:43;;;;;;;;;;;11.70;75.80;;;10.69;nan;96165.94;4285108;33;19901;-87
2022/04/27 00:50:12;;;;;;;;;;;11.70;75.70;;;10.67;nan;96160.69;4237688;33;20032;-88
2022/04/27 00:52:41;;;;;;;;;;;11.70;75.80;;;10.68;nan;96159.59;4262569;33;20105;-85
2022/04/27 00:55:11;;;;;;;;;;;11.70;75.70;;;10.68;nan;96159.59;4237709;33;19902;-87
2022/04/27 00:57:40;;;;;;;;;;;11.70;75.60;;;10.68;nan;96161.53;4237268;33;19909;-87
2022/04/27 01:00:09;;;;;;;;;;;11.70;75.60;;;10.66;nan;96161.78;4237676;33;19901;-86
2022/04/27 01:02:40;;;;;;;;;;;11.70;75.70;;;10.66;nan;96160.97;4237420;33;19902;-86
2022/04/27 01:05:11;;;;;;;;;;;11.70;75.70;;;10.67;nan;96165.38;4237644;33;20148;-86
2022/04/27 01:07:40;;;;;;;;;;;11.70;75.60;;;10.66;nan;96160.97;4261039;33;20289;-87
2022/04/27 01:10:10;;;;;;;;;;;11.70;75.60;;;10.64;nan;96150.31;4261184;33;20127;-87
2022/04/27 01:12:41;;;;;;;;;;;11.70;75.40;;;10.65;nan;96157.41;4237586;33;20136;-87
2022/04/27 01:15:33;;;;;;;;;;;11.70;75.40;;;10.63;nan;96154.16;4237491;33;19902;-86
2022/04/27 01:18:04;;;;;;;;;;;11.70;75.40;;;10.63;nan;96156.88;4237142;33;19909;-88
2022/04/27 01:20:38;;;;;;;;;;;11.70;75.40;;;10.63;nan;96162.38;4237569;33;19916;-86
2022/04/27 01:23:07;;;;;;;;;;;11.60;75.20;;;10.64;nan;96161.28;4261250;33;19909;-86
2022/04/27 01:25:50;;;;;;;;;;;11.70;75.40;;;10.63;nan;96156.88;4261181;33;19936;-86
2022/04/27 01:28:20;;;;;;;;;;;11.60;75.20;;;10.63;nan;96156.03;4237138;33;20470;-86
2022/04/27 01:30:49;;;;;;;;;;;11.60;75.20;;;10.62;nan;96157.13;4238635;33;19977;-86
2022/04/27 01:33:18;;;;;;;;;;;11.60;75.20;;;10.62;nan;96152.50;4239131;33;19902;-87
2022/04/27 01:35:48;;;;;;;;;;;11.60;75.20;;;10.62;nan;96148.94;4239739;33;20110;-87
2022/04/27 01:38:18;;;;;;;;;;;11.60;75.10;;;10.61;nan;96142.66;4239439;33;20172;-86
2022/04/27 01:40:47;;;;;;;;;;;11.60;75.10;;;10.60;nan;96149.22;4239848;33;19902;-86
2022/04/27 01:43:15;;;;;;;;;;;11.60;75.10;;;10.61;nan;96150.84;4239888;33;20124;-87
2022/04/27 01:45:45;;;;;;;;;;;11.60;75.10;;;10.61;nan;96145.38;4263519;33;20034;-86
2022/04/27 01:48:13;;;;;;;;;;;11.60;75.00;;;10.59;nan;96150.31;4239069;33;19902;-87
2022/04/27 01:50:42;;;;;;;;;;;11.60;75.00;;;10.61;nan;96152.75;4239750;33;19902;-86
2022/04/27 01:55:58;;;;;;;;;;;11.60;75.10;;;10.60;nan;96149.22;4215915;33;20140;-86
2022/04/27 01:58:27;;;;;;;;;;;11.60;75.10;;;10.58;nan;96146.75;4215801;33;20010;-87
2022/04/27 02:00:57;;;;;;;;;;;11.60;75.00;;;10.57;nan;96147.00;4216121;33;19902;-86
2022/04/27 02:03:26;;;;;;;;;;;11.60;75.00;;;10.58;nan;96148.66;4216079;33;19901;-86
2022/04/27 02:05:56;;;;;;;;;;;11.60;75.00;;;10.58;nan;96148.66;4239249;33;19902;-89
2022/04/27 02:08:28;;;;;;;;;;;11.60;75.00;;;10.58;nan;96154.97;4239647;33;19909;-86
2022/04/27 02:10:57;;;;;;;;;;;11.60;75.00;;;10.58;nan;96148.66;4239508;33;19909;-86
2022/04/27 02:13:26;;;;;;;;;;;11.60;75.00;;;10.57;nan;96147.84;4216000;33;19902;-87
2022/04/27 02:15:57;;;;;;;;;;;11.60;75.10;;;10.58;nan;96146.75;4215912;33;20162;-87
2022/04/27 02:18:36;;;;;;;;;;;11.60;75.20;;;10.58;nan;96140.44;4215995;33;20009;-86
2022/04/27 02:21:06;;;;;;;;;;;11.60;75.20;;;10.56;nan;96139.88;4215918;33;20044;-86
2022/04/27 02:23:36;;;;;;;;;;;11.60;75.20;;;10.58;nan;96145.91;4215932;33;19902;-86
2022/04/27 02:26:05;;;;;;;;;;;11.60;75.20;;;10.59;nan;96145.63;4238658;33;20217;-86
2022/04/27 02:28:34;;;;;;;;;;;11.60;75.30;;;10.59;nan;96133.88;4239335;33;19910;-87
2022/04/27 02:31:02;;;;;;;;;;;11.60;75.40;;;10.57;nan;96142.38;4215821;33;20058;-86
2022/04/27 02:33:31;;;;;;;;;;;11.60;75.40;;;10.59;nan;96144.81;4215205;33;20077;-86
2022/04/27 02:36:00;;;;;;;;;;;11.60;75.40;;;10.60;nan;96146.47;4214631;33;19909;-87
2022/04/27 02:38:28;;;;;;;;;;;11.60;75.50;;;10.60;nan;96146.47;4215664;33;19909;-85
2022/04/27 02:40:59;;;;;;;;;;;11.60;75.50;;;10.58;nan;96143.19;4262587;33;20328;-86
2022/04/27 02:43:28;;;;;;;;;;;11.60;75.50;;;10.61;nan;96150.00;4239268;33;20284;-87
2022/04/27 02:45:57;;;;;;;;;;;11.60;75.60;;;10.59;nan;96142.09;4238669;33;20129;-87
2022/04/27 02:48:26;;;;;;;;;;;11.60;75.60;;;10.59;nan;96144.81;4239056;33;20469;-87
2022/04/27 02:53:40;;;;;;;;;;;11.60;75.70;;;10.62;nan;96146.19;4262983;33;20121;-86
2022/04/27 02:56:11;;;;;;;;;;;11.60;75.70;;;10.62;nan;96137.97;4262342;33;19908;-86
2022/04/27 02:58:40;;;;;;;;;;;11.60;75.80;;;10.62;nan;96140.72;4262692;33;20478;-86
2022/04/27 03:01:10;;;;;;;;;;;11.60;75.90;;;10.60;nan;96143.72;4238926;33;19909;-87
2022/04/27 03:03:39;;;;;;;;;;;11.60;75.90;;;10.62;nan;96140.72;4238958;33;19909;-86
2022/04/27 03:06:09;;;;;;;;;;;11.60;75.90;;;10.62;nan;96152.50;4238351;33;20133;-87
2022/04/27 03:08:38;;;;;;;;;;;11.60;75.90;;;10.63;nan;96156.88;4262821;33;19902;-87
2022/04/27 03:11:07;;;;;;;;;;;11.60;76.00;;;10.60;nan;96157.41;4238687;33;20229;-86
2022/04/27 03:13:53;;;;;;;;;;;11.60;76.00;;;10.63;nan;96156.88;4262562;33;19910;-87
2022/04/27 03:16:22;;;;;;;;;;;11.60;76.10;;;10.63;nan;96167.00;4286239;33;20275;-88
2022/04/27 03:18:50;;;;;;;;;;;11.60;76.10;;;10.63;nan;96158.78;4238689;33;20160;-86
2022/04/27 03:21:19;;;;;;;;;;;11.60;76.10;;;10.63;nan;96173.31;4239003;33;20038;-88
2022/04/27 03:23:48;;;;;;;;;;;11.60;76.00;;;10.63;nan;96173.31;4238642;33;20146;-87
2022/04/27 03:26:16;;;;;;;;;;;11.60;76.00;;;10.62;nan;96170.81;4262077;33;19902;-87
2022/04/27 03:28:45;;;;;;;;;;;11.60;76.10;;;10.63;nan;96167.84;4263118;33;20181;-87
2022/04/27 03:31:15;;;;;;;;;;;11.60;76.20;;;10.62;nan;96168.94;4238611;33;20129;-86
2022/04/27 03:33:47;;;;;;;;;;;11.60;76.20;;;10.64;nan;96169.47;4262656;33;19909;-87
2022/04/27 03:36:15;;;;;;;;;;;11.60;76.10;;;10.65;nan;96171.09;4238004;33;19909;-87
2022/04/27 03:38:44;;;;;;;;;;;11.70;76.10;;;10.64;nan;96169.47;4238359;33;19909;-87
2022/04/27 03:41:14;;;;;;;;;;;11.70;76.20;;;10.67;nan;96181.78;4262574;33;19901;-87
2022/04/27 03:43:45;;;;;;;;;;;11.70;76.10;;;10.66;nan;96175.47;4238394;33;20014;-88
2022/04/27 03:46:15;;;;;;;;;;;11.70;75.90;;;10.69;nan;96183.16;4284822;33;19916;-88
2022/04/27 03:48:44;;;;;;;;;;;11.70;76.00;;;10.71;nan;96180.97;4238365;33;19902;-88
2022/04/27 03:51:13;;;;;;;;;;;11.70;76.20;;;10.73;nan;96184.28;4238463;33;20022;-86
2022/04/27 03:53:44;;;;;;;;;;;11.70;76.20;;;10.76;nan;96193.03;4261200;33;19909;-87
2022/04/27 03:56:13;;;;;;;;;;;11.80;76.20;;;10.77;nan;96190.00;4221786;33;20104;-86
2022/04/27 03:58:41;;;;;;;;;;;11.80;76.20;;;10.79;nan;96189.72;4233159;33;19976;-88
2022/04/27 04:01:11;;;;;;;;;;;11.80;76.20;;;10.83;nan;96199.06;4186930;33;20406;-87
2022/04/27 04:03:41;;;;;;;;;;;11.80;75.70;;;10.82;nan;96191.94;4210153;33;19910;-86
2022/04/27 04:06:10;;;;;;;;;;;11.90;75.10;;;10.86;nan;96201.25;4186548;33;19946;-86
2022/04/27 04:08:45;;;;;;;;;;;11.90;75.10;;;10.88;nan;96194.41;4186805;33;20137;-87
2022/04/27 04:11:15;;;;;;;;;;;11.90;74.80;;;10.88;nan;96185.38;4186857;33;19917;-87
2022/04/27 04:13:57;;;;;;;;;;;11.90;74.80;;;10.94;nan;96197.97;4186824;33;19925;-87
2022/04/27 04:16:49;;;;;;;;;;;11.90;75.00;;;10.97;nan;96193.88;4186261;33;20210;-87
2022/04/27 04:19:45;;;;;;;;;;;12.00;75.20;;;10.99;nan;96192.50;4204460;33;19909;-87
2022/04/27 04:22:39;;;;;;;;;;;12.00;75.10;;;11.02;nan;96191.97;4209776;33;19913;-87
2022/04/27 04:28:34;;;;;;;;;;;12.10;75.50;;;11.11;nan;96196.88;4185961;33;19903;-87
2022/04/27 04:31:05;;;;;;;;;;;12.10;75.50;;;11.13;nan;96192.75;4209857;33;19902;-86
2022/04/27 04:33:56;;;;;;;;;;;12.10;75.50;;;11.16;nan;96197.69;4198650;33;20169;-87
2022/04/27 04:36:26;;;;;;;;;;;12.20;75.40;;;11.18;nan;96183.72;4186103;33;19918;-87
2022/04/27 04:38:55;;;;;;;;;;;12.20;75.30;;;11.22;nan;96194.97;4209672;33;19962;-87
2022/04/27 04:41:26;;;;;;;;;;;12.20;75.10;;;11.23;nan;96194.69;4186666;33;19902;-86
2022/04/27 04:43:58;;;;;;;;;;;12.20;75.10;;;11.24;nan;96190.84;4186614;33;20123;-87
2022/04/27 04:46:31;;;;;;;;;;;12.30;75.20;;;11.23;nan;96189.22;4209170;33;19925;-86
2022/04/27 04:49:15;;;;;;;;;;;12.20;74.90;;;11.25;nan;96200.72;4186414;33;20107;-86
2022/04/27 04:52:04;;;;;;;;;;;12.30;74.90;;;11.25;nan;96200.72;4209773;33;19953;-87
2022/04/27 04:54:53;;;;;;;;;;;12.30;75.80;;;11.24;nan;96204.56;4209205;33;19955;-87
2022/04/27 04:57:35;;;;;;;;;;;12.30;75.00;;;11.25;nan;96206.19;4209041;33;19903;-88
2022/04/27 05:00:19;;;;;;;;;;;12.30;75.00;;;11.26;nan;96207.84;4186609;33;20163;-87
2022/04/27 05:02:54;;;;;;;;;;;12.30;75.10;;;11.27;nan;96198.53;4232904;33;19902;-87
2022/04/27 05:05:41;;;;;;;;;;;12.30;74.90;;;11.31;nan;96215.25;4233708;33;20162;-86
2022/04/27 05:08:34;;;;;;;;;;;12.30;74.90;;;11.33;nan;96202.91;4206720;33;20036;-87
2022/04/27 05:11:16;;;;;;;;;;;12.30;74.70;;;11.38;nan;96206.75;4186508;33;20165;-86
2022/04/27 05:14:00;;;;;;;;;;;12.40;74.70;;;11.38;nan;96204.81;4209350;33;19902;-87
2022/04/27 05:16:58;;;;;;;;;;;12.40;74.50;;;11.45;nan;96204.53;4208846;33;19903;-87
2022/04/27 05:19:39;;;;;;;;;;;12.40;74.40;;;11.50;nan;96210.00;4209412;33;20364;-87
2022/04/27 05:22:26;;;;;;;;;;;12.50;74.40;;;11.62;nan;96209.69;4209308;33;19903;-87
2022/04/27 05:25:22;;;;;;;;;;;12.60;74.10;;;11.72;nan;96208.88;4185653;33;19975;-87
2022/04/27 05:28:14;;;;;;;;;;;12.70;73.90;;;11.80;nan;96216.53;4193987;33;19903;-87
2022/04/27 05:34:11;;;;;;;;;;;12.80;73.30;;;11.92;nan;96225.28;4142989;33;19910;-87
2022/04/27 05:36:46;;;;;;;;;;;12.90;73.30;;;11.92;nan;96219.81;4207866;33;20098;-87
2022/04/27 05:39:40;;;;;;;;;;;12.90;73.10;;;11.96;nan;96223.63;4177800;33;20209;-87
2022/04/27 05:42:26;;;;;;;;;;;12.90;73.00;;;11.98;nan;96228.88;4222163;33;19909;-87
2022/04/27 05:45:07;;;;;;;;;;;13.00;72.80;;;12.00;nan;96231.31;4237431;33;19909;-86
2022/04/27 05:47:56;;;;;;;;;;;13.00;72.70;;;12.00;nan;96231.31;4231632;33;20108;-87
2022/04/27 05:50:45;;;;;;;;;;;13.00;72.70;;;12.01;nan;96233.78;4261212;33;19932;-87
2022/04/27 05:53:33;;;;;;;;;;;13.00;72.60;;;12.01;nan;96232.97;4237278;33;20189;-87
2022/04/27 05:56:20;;;;;;;;;;;13.00;72.50;;;12.01;nan;96238.47;4236640;33;19902;-86
2022/04/27 05:59:09;;;;;;;;;;;13.00;72.50;;;12.02;nan;96242.84;4237332;33;20201;-87
2022/04/27 06:02:03;;;;;;;;;;;13.00;72.50;;;12.02;nan;96243.66;4261683;33;19901;-88
2022/04/27 06:04:32;;;;;;;;;;;13.10;72.60;;;12.04;nan;96254.38;4237401;33;19902;-87
2022/04/27 06:07:01;;;;;;;;;;;13.10;72.60;;;12.03;nan;96247.22;4213061;33;19902;-87
2022/04/27 06:09:30;;;;;;;;;;;13.10;72.60;;;12.05;nan;96258.75;4213774;33;20125;-87
2022/04/27 06:12:08;;;;;;;;;;;13.10;72.60;;;12.06;nan;96263.16;4213946;33;19909;-87
2022/04/27 06:14:47;;;;;;;;;;;13.10;72.60;;;12.07;nan;96267.53;4261785;33;19979;-87
2022/04/27 06:17:27;;;;;;;;;;;13.10;72.60;;;12.10;nan;96280.69;4238718;33;20271;-88
2022/04/27 06:19:56;;;;;;;;;;;13.10;72.60;;;12.11;nan;96272.19;4216212;33;19909;-87
2022/04/27 06:22:24;;;;;;;;;;;13.10;72.60;;;12.13;nan;96274.63;4216334;33;19909;-87
2022/04/27 06:24:53;;;;;;;;;;;13.10;72.60;;;12.13;nan;96275.44;4216175;33;19901;-87
2022/04/27 06:27:44;;;;;;;;;;;13.20;72.60;;;12.15;nan;96279.84;4224487;33;19997;-87
2022/04/27 06:30:15;;;;;;;;;;;13.20;72.60;;;12.17;nan;96274.91;4215754;33;19909;-87
2022/04/27 06:32:46;;;;;;;;;;;13.20;72.50;;;12.17;nan;96273.00;4238458;33;20037;-87
2022/04/27 06:35:14;;;;;;;;;;;13.20;72.50;;;12.19;nan;96272.69;4214848;33;20365;-86
2022/04/27 06:37:46;;;;;;;;;;;13.20;72.50;;;12.20;nan;96280.66;4237831;33;20099;-87
2022/04/27 06:40:15;;;;;;;;;;;13.20;72.50;;;12.22;nan;96283.13;4214281;33;19917;-88
2022/04/27 06:42:44;;;;;;;;;;;13.20;72.40;;;12.21;nan;96276.78;4214816;33;19902;-87
2022/04/27 06:45:46;;;;;;;;;;;13.20;72.40;;;12.24;nan;96281.72;4177550;33;20139;-88
2022/04/27 06:48:33;;;;;;;;;;;13.20;72.40;;;12.26;nan;96285.03;4262871;33;19902;-87
2022/04/27 06:51:28;;;;;;;;;;;13.20;72.40;;;12.24;nan;96276.25;4196115;33;19925;-88
2022/04/27 06:54:16;;;;;;;;;;;13.20;72.40;;;12.21;nan;96286.97;4238212;33;20132;-86
2022/04/27 06:57:03;;;;;;;;;;;13.20;72.40;;;12.14;nan;96287.25;4237621;33;19969;-87
2022/04/27 06:59:34;;;;;;;;;;;13.20;72.60;;;12.08;nan;96289.19;4238093;33;20049;-87
2022/04/27 07:02:11;;;;;;;;;;;13.10;72.70;;;12.04;nan;96298.28;4214827;33;20151;-87
2022/04/27 07:04:40;;;;;;;;;;;13.10;72.90;;;12.01;nan;96299.63;4214702;33;20271;-87
2022/04/27 07:07:09;;;;;;;;;;;13.00;73.00;;;11.99;nan;96295.53;4214066;33;19947;-87
2022/04/27 07:09:38;;;;;;;;;;;13.00;73.10;;;11.97;nan;96293.84;4237961;33;19902;-88
2022/04/27 07:12:07;;;;;;;;;;;13.00;73.20;;;11.95;nan;96290.56;4262973;33;20009;-87
2022/04/27 07:14:36;;;;;;;;;;;13.00;73.40;;;11.93;nan;96287.28;4238005;33;20302;-87
2022/04/27 07:17:05;;;;;;;;;;;12.90;73.50;;;11.96;nan;96283.97;4237583;33;19902;-87
2022/04/27 07:19:35;;;;;;;;;;;13.00;73.60;;;12.01;nan;96290.59;4238100;33;19902;-87
2022/04/27 07:22:05;;;;;;;;;;;13.00;73.50;;;12.08;nan;96296.59;4214472;33;19901;-87
2022/04/27 07:24:34;;;;;;;;;;;13.00;73.40;;;12.12;nan;96289.47;4224360;33;20023;-88
2022/04/27 07:27:02;;;;;;;;;;;13.10;73.40;;;12.16;nan;96298.78;4285194;33;20132;-87
2022/04/27 07:29:31;;;;;;;;;;;13.10;73.20;;;12.17;nan;96289.47;4261563;33;20236;-87
2022/04/27 07:32:00;;;;;;;;;;;13.10;73.10;;;12.17;nan;96296.84;4261582;33;20167;-87
2022/04/27 07:34:30;;;;;;;;;;;13.10;73.00;;;12.16;nan;96308.94;4261421;33;19942;-87
2022/04/27 07:37:02;;;;;;;;;;;13.10;73.00;;;12.17;nan;96303.19;4261049;33;20403;-87
2022/04/27 07:39:30;;;;;;;;;;;13.10;73.10;;;12.18;nan;96304.00;4261697;33;20270;-88
2022/04/27 07:41:59;;;;;;;;;;;13.10;73.10;;;12.13;nan;96300.16;4285787;33;19902;-87
2022/04/27 07:44:28;;;;;;;;;;;13.10;72.90;;;12.10;nan;96297.97;4237764;33;20148;-87
2022/04/27 07:46:56;;;;;;;;;;;13.10;73.00;;;12.06;nan;96296.06;4237072;33;20141;-87
2022/04/27 07:49:25;;;;;;;;;;;13.10;73.10;;;12.06;nan;96301.56;4285691;33;20354;-87
2022/04/27 07:51:54;;;;;;;;;;;13.10;73.20;;;12.05;nan;96305.41;4261609;33;20137;-88
2022/04/27 07:54:24;;;;;;;;;;;13.10;73.30;;;12.03;nan;96302.09;4237852;33;20065;-87
2022/04/27 07:56:53;;;;;;;;;;;13.00;73.30;;;11.97;nan;96299.34;4261038;33;19901;-87
2022/04/27 07:59:22;;;;;;;;;;;13.00;73.30;;;11.97;nan;96301.28;4237612;33;20343;-87
2022/04/27 08:01:50;;;;;;;;;;;13.00;73.40;;;11.93;nan;96303.75;4237694;33;19925;-87
2022/04/27 08:04:19;;;;;;;;;;;12.90;73.50;;;11.90;nan;96304.28;4285475;33;20141;-88
2022/04/27 08:06:47;;;;;;;;;;;12.90;73.70;;;11.92;nan;96304.84;4290148;27;19930;-87
2022/04/27 08:09:16;;;;;;;;;;;12.90;73.90;;;11.95;nan;96301.53;4181325;33;19903;-86
2022/04/27 08:11:47;;;;;;;;;;;12.90;73.90;;;11.96;nan;96297.69;4181376;33;20245;-87
2022/04/27 08:14:15;;;;;;;;;;;12.90;73.90;;;11.96;nan;96303.16;4205406;33;20406;-87
2022/04/27 08:16:44;;;;;;;;;;;12.90;73.70;;;11.95;nan;96296.03;4232590;33;19902;-87
2022/04/27 08:19:13;;;;;;;;;;;12.90;73.70;;;11.94;nan;96299.88;4232746;33;20247;-88
2022/04/27 08:21:43;;;;;;;;;;;12.90;73.70;;;11.97;nan;96298.53;4210022;33;19902;-87
2022/04/27 08:24:14;;;;;;;;;;;13.00;73.80;;;12.01;nan;96307.84;4186341;33;19903;-87
2022/04/27 08:26:47;;;;;;;;;;;13.00;73.70;;;12.01;nan;96299.63;4185985;33;20353;-87
2022/04/27 08:29:17;;;;;;;;;;;13.00;73.70;;;12.03;nan;96299.38;4186201;33;23050;-86
2022/04/27 08:31:46;;;;;;;;;;;13.00;73.60;;;12.07;nan;96293.03;4233105;33;20441;-87
2022/04/27 08:34:14;;;;;;;;;;;13.10;73.70;;;12.11;nan;96287.81;4185999;33;20268;-88
2022/04/27 08:36:43;;;;;;;;;;;13.10;73.60;;;12.16;nan;96296.03;4204033;33;20219;-88
2022/04/27 08:39:13;;;;;;;;;;;13.10;73.50;;;12.18;nan;96290.25;4181065;33;19903;-88
2022/04/27 08:41:42;;;;;;;;;;;13.10;73.30;;;12.16;nan;96285.06;4181582;33;19902;-87
2022/04/27 08:44:12;;;;;;;;;;;13.10;73.20;;;12.15;nan;96288.91;4181455;33;19903;-86
2022/04/27 08:47:02;;;;;;;;;;;;;;;;;;;;;
2022/04/27 08:49:34;;;;;;;;;;;13.20;73.10;;;12.13;nan;96278.19;4158188;33;20063;-88
2022/04/27 08:52:03;;;;;;;;;;;13.10;73.20;;;12.16;nan;96278.75;4209028;33;19910;-88
2022/04/27 08:54:33;;;;;;;;;;;13.20;73.20;;;12.18;nan;96277.38;4186218;33;20210;-86
2022/04/27 08:57:04;;;;;;;;;;;13.20;73.20;;;12.18;nan;96274.63;4185608;33;20243;-87
2022/04/27 08:59:34;;;;;;;;;;;13.20;73.20;;;12.22;nan;96278.44;4185933;33;20390;-88
2022/04/27 09:02:24;;;;;;;;;;;13.20;73.10;;;12.23;nan;96269.13;4186044;33;20233;-88
2022/04/27 09:05:10;;;;;;;;;;;13.20;73.10;;;12.22;nan;96267.47;4186296;33;19902;-88
2022/04/27 09:07:39;;;;;;;;;;;13.20;73.00;;;12.24;nan;96265.28;4185581;33;19902;-88
2022/04/27 09:10:10;;;;;;;;;;;13.20;73.10;;;12.26;nan;96270.50;4186203;33;19903;-88
2022/04/27 09:12:45;;;;;;;;;;;13.20;73.10;;;12.25;nan;96266.91;4209253;33;20121;-89
2022/04/27 09:15:16;;;;;;;;;;;13.20;73.00;;;12.24;nan;96265.28;4185895;33;19902;-88
2022/04/27 09:20:50;;;;;;;;;;;13.20;73.10;;;12.23;nan;96269.13;4182439;33;19943;-86
2022/04/27 09:23:24;;;;;;;;;;;13.20;73.10;;;12.22;nan;96267.47;4181176;33;20141;-87
2022/04/27 09:25:55;;;;;;;;;;;13.20;73.10;;;12.20;nan;96275.16;4204366;33;20050;-88
2022/04/27 09:28:24;;;;;;;;;;;13.20;73.10;;;12.17;nan;96270.25;4158066;33;19909;-87
2022/04/27 09:30:55;;;;;;;;;;;13.20;73.20;;;12.19;nan;96275.44;4158648;33;19902;-87
2022/04/27 09:33:32;;;;;;;;;;;13.20;73.30;;;12.16;nan;96282.31;4180882;33;19910;-88
2022/04/27 09:36:00;;;;;;;;;;;13.20;73.40;;;12.15;nan;96277.94;4203791;33;19902;-87
2022/04/27 09:38:41;;;;;;;;;;;13.10;73.50;;;12.11;nan;96280.41;4181016;33;20210;-87
2022/04/27 09:41:10;;;;;;;;;;;13.10;73.50;;;12.10;nan;96287.00;4204321;33;19903;-87
2022/04/27 09:43:45;;;;;;;;;;;13.10;73.70;;;12.09;nan;96288.09;4204270;33;20132;-87
2022/04/27 09:46:22;;;;;;;;;;;13.10;73.70;;;12.08;nan;96288.34;4157637;33;19910;-87
2022/04/27 09:49:09;;;;;;;;;;;13.10;73.80;;;12.05;nan;96288.94;4157810;33;20133;-88
2022/04/27 09:51:38;;;;;;;;;;;13.00;73.80;;;12.03;nan;96280.97;4205516;33;19902;-88
2022/04/27 09:54:07;;;;;;;;;;;13.00;73.90;;;12.01;nan;96282.34;4229807;33;20253;-89
2022/04/27 09:56:37;;;;;;;;;;;13.00;74.00;;;11.99;nan;96282.66;4182257;33;20014;-88
2022/04/27 09:59:08;;;;;;;;;;;13.00;74.10;;;11.96;nan;96292.19;4182857;33;20120;-88
2022/04/27 10:01:39;;;;;;;;;;;13.00;74.20;;;11.94;nan;96296.31;4206052;33;20046;-87
2022/04/27 10:04:07;;;;;;;;;;;12.90;74.40;;;11.92;nan;96304.84;4182792;33;19954;-89
2022/04/27 10:06:44;;;;;;;;;;;12.90;74.50;;;11.92;nan;96301.25;4228994;33;20206;-88
2022/04/27 10:09:13;;;;;;;;;;;12.90;74.50;;;11.92;nan;96298.53;4182715;33;19903;-89
2022/04/27 10:12:15;;;;;;;;;;;12.90;74.50;;;11.91;nan;96297.72;4205985;33;19910;-88
2022/04/27 10:14:46;;;;;;;;;;;12.90;75.40;;;11.91;nan;96294.97;4195007;33;20163;-88
2022/04/27 10:18:13;;;;;;;;;;;12.90;74.70;;;11.90;nan;96293.31;4206118;33;20097;-88
2022/04/27 10:20:44;;;;;;;;;;;12.90;74.70;;;11.94;nan;96297.13;4145646;33;20039;-87
2022/04/27 10:23:44;;;;;;;;;;;12.90;74.60;;;11.97;nan;96299.34;4160672;33;20420;-88
2022/04/27 10:26:15;;;;;;;;;;;13.00;74.60;;;11.99;nan;96292.78;4159620;33;20049;-88
2022/04/27 10:32:57;;;;;;;;;;;13.00;74.40;;;11.99;nan;96298.25;4172941;33;20013;-88
2022/04/27 10:36:37;;;;;;;;;;;13.00;74.40;;;12.03;nan;96302.09;4371908;28;19905;-86
2022/04/27 10:39:23;;;;;;;;;;;13.00;74.50;;;12.02;nan;96297.72;4160123;33;20409;-88
2022/04/27 10:41:57;;;;;;;;;;;13.00;74.40;;;12.02;nan;96300.47;4183197;33;19902;-88
2022/04/27 10:45:08;;;;;;;;;;;13.00;74.40;;;12.00;nan;96297.16;4160233;33;20128;-87
2022/04/27 10:47:38;;;;;;;;;;;13.00;74.40;;;12.00;nan;96299.91;4208977;33;19902;-88
2022/04/27 10:50:34;;;;;;;;;;;13.00;74.50;;;12.00;nan;96298.00;4234368;33;20147;-88
2022/04/27 10:53:19;;;;;;;;;;;13.00;74.50;;;12.00;nan;96294.44;4211256;33;20137;-88
2022/04/27 10:55:51;;;;;;;;;;;13.00;74.50;;;11.99;nan;96293.63;4210995;33;19917;-88
2022/04/27 10:58:29;;;;;;;;;;;13.00;74.60;;;11.99;nan;96290.03;4187598;33;20148;-87
2022/04/27 11:01:30;;;;;;;;;;;13.00;74.60;;;11.99;nan;96295.53;4188039;33;19902;-88
2022/04/27 11:04:16;;;;;;;;;;;13.00;74.70;;;11.98;nan;96289.22;4187768;33;19903;-88
2022/04/27 11:07:34;;;;;;;;;;;13.00;74.70;;;12.00;nan;96291.69;4187259;33;19947;-89
2022/04/27 11:10:17;;;;;;;;;;;13.00;74.70;;;12.01;nan;96293.31;4184186;33;19902;-88
2022/04/27 11:12:48;;;;;;;;;;;13.00;74.60;;;12.00;nan;96297.16;4187661;33;19909;-89
2022/04/27 11:15:21;;;;;;;;;;;13.00;74.70;;;12.01;nan;96301.56;4187670;33;20336;-86
2022/04/27 11:17:56;;;;;;;;;;;13.00;74.80;;;11.99;nan;96299.09;4187277;33;19902;-87
2022/04/27 11:20:29;;;;;;;;;;;13.00;74.80;;;12.00;nan;96294.44;4210902;33;19958;-88
2022/04/27 11:22:58;;;;;;;;;;;13.00;75.00;;;12.00;nan;96302.66;4210873;33;19971;-87
2022/04/27 11:25:30;;;;;;;;;;;13.00;74.90;;;11.98;nan;96294.72;4187601;33;20155;-87
2022/04/27 11:27:59;;;;;;;;;;;13.00;75.00;;;11.96;nan;96299.63;4233778;33;20105;-88
2022/04/27 11:30:29;;;;;;;;;;;13.00;74.90;;;11.96;nan;96294.94;4210976;33;19902;-88
2022/04/27 11:32:59;;;;;;;;;;;13.00;74.90;;;11.96;nan;96294.13;4205983;33;19903;-88
2022/04/27 11:36:03;;;;;;;;;;;13.00;75.00;;;11.94;nan;96291.66;4183014;33;20331;-87
2022/04/27 11:54:51;;;;;;;;;;;13.00;75.00;;;12.02;nan;96301.28;3898886;35;19930;-89
2022/04/27 11:57:23;;;;;;;;;;;13.00;75.00;;;12.02;nan;96300.47;3919060;35;19910;-87
2022/04/27 11:59:57;;;;;;;;;;;13.00;75.00;;;12.00;nan;96291.69;4048701;34;20089;-88
2022/04/27 12:02:26;;;;;;;;;;;13.00;75.00;;;12.01;nan;96299.63;4127184;34;19988;-88
2022/04/27 12:04:59;;;;;;;;;;;13.00;75.10;;;12.00;nan;96286.19;4126746;34;19947;-89
2022/04/27 12:07:28;;;;;;;;;;;13.00;75.10;;;12.01;nan;96296.06;4153888;34;19955;-88
2022/04/27 12:11:01;;;;;;;;;;;13.00;75.10;;;11.96;nan;96292.19;4131153;34;19903;-89
2022/04/27 12:13:31;;;;;;;;;;;13.00;75.10;;;11.96;nan;96297.69;4108000;34;19903;-89
2022/04/27 12:16:08;;;;;;;;;;;13.00;75.20;;;11.97;nan;96304.81;4153597;34;20222;-88
2022/04/27 12:18:40;;;;;;;;;;;13.00;75.20;;;11.95;nan;96298.78;4176808;34;19903;-88
2022/04/27 12:21:20;;;;;;;;;;;13.00;75.20;;;11.96;nan;96303.16;4130360;34;19903;-88
2022/04/27 12:23:48;;;;;;;;;;;13.00;75.20;;;11.95;nan;96295.22;4131382;34;20180;-86
2022/04/27 12:26:17;;;;;;;;;;;13.00;75.30;;;11.95;nan;96296.03;4130714;34;19914;-88
2022/04/27 12:28:49;;;;;;;;;;;12.90;75.30;;;11.95;nan;96303.47;4177128;34;19903;-88
2022/04/27 12:31:20;;;;;;;;;;;12.90;75.30;;;11.93;nan;96300.16;4131240;34;19985;-89
2022/04/27 12:33:53;;;;;;;;;;;12.90;75.40;;;11.93;nan;96303.75;4126388;34;20398;-89
2022/04/27 12:39:23;;;;;;;;;;;12.90;75.40;;;11.92;nan;96307.59;4209892;33;19902;-89
2022/04/27 12:41:52;;;;;;;;;;;12.90;75.50;;;11.93;nan;96311.13;4209988;33;19902;-89
2022/04/27 12:44:24;;;;;;;;;;;12.90;75.50;;;11.92;nan;96310.34;4210201;33;20109;-89
2022/04/27 12:46:57;;;;;;;;;;;12.90;75.60;;;11.92;nan;96313.06;4209269;33;19902;-87